sensor_id;sensor_type;location;lat;lon;timestamp;P1;durP1;ratioP1;P2;durP2;ratioP2
75303;SDS011;64042;50.916;6.988;2023-02-13T00:01:05;5.30;;;4.00;;
75303;SDS011;64042;50.916;6.988;2023-02-13T00:03:30;6.60;;;4.60;;
75303;SDS011;64042;50.916;6.988;2023-02-13T00:05:55;5.57;;;4.63;;
75303;SDS011;64042;50.916;6.988;2023-02-13T00:08:21;5.13;;;3.90;;
75303;SDS011;64042;50.916;6.988;2023-02-13T00:10:46;5.60;;;4.18;;
75303;SDS011;64042;50.916;6.988;2023-02-13T00:13:12;5.88;;;4.10;;
75303;SDS011;64042;50.916;6.988;2023-02-13T00:15:37;4.90;;;3.85;;
75303;SDS011;64042;50.916;6.988;2023-02-13T00:18:03;5.43;;;4.93;;
75303;SDS011;64042;50.916;6.988;2023-02-13T00:20:29;4.38;;;3.13;;
75303;SDS011;64042;50.916;6.988;2023-02-13T00:22:54;5.43;;;4.18;;
75303;SDS011;64042;50.916;6.988;2023-02-13T00:25:19;6.40;;;4.22;;
75303;SDS011;64042;50.916;6.988;2023-02-13T00:27:45;5.28;;;3.38;;
75303;SDS011;64042;50.916;6.988;2023-02-13T00:30:10;4.85;;;3.90;;
75303;SDS011;64042;50.916;6.988;2023-02-13T00:32:36;5.80;;;4.05;;
75303;SDS011;64042;50.916;6.988;2023-02-13T00:35:01;6.33;;;3.97;;
75303;SDS011;64042;50.916;6.988;2023-02-13T00:37:26;4.32;;;3.20;;
75303;SDS011;64042;50.916;6.988;2023-02-13T00:39:52;4.68;;;3.97;;
75303;SDS011;64042;50.916;6.988;2023-02-13T00:42:17;4.30;;;3.90;;
75303;SDS011;64042;50.916;6.988;2023-02-13T00:44:43;4.88;;;4.15;;
75303;SDS011;64042;50.916;6.988;2023-02-13T00:47:08;4.97;;;3.80;;
75303;SDS011;64042;50.916;6.988;2023-02-13T00:49:33;4.63;;;3.60;;
75303;SDS011;64042;50.916;6.988;2023-02-13T00:51:59;4.80;;;4.25;;
75303;SDS011;64042;50.916;6.988;2023-02-13T00:54:24;6.60;;;4.40;;
75303;SDS011;64042;50.916;6.988;2023-02-13T00:56:49;4.73;;;3.93;;
75303;SDS011;64042;50.916;6.988;2023-02-13T00:59:15;4.93;;;3.85;;
75303;SDS011;64042;50.916;6.988;2023-02-13T01:01:41;4.65;;;3.97;;
75303;SDS011;64042;50.916;6.988;2023-02-13T01:04:07;4.80;;;3.20;;
75303;SDS011;64042;50.916;6.988;2023-02-13T01:06:32;4.57;;;3.40;;
75303;SDS011;64042;50.916;6.988;2023-02-13T01:08:57;3.63;;;3.23;;
75303;SDS011;64042;50.916;6.988;2023-02-13T01:11:22;5.37;;;4.23;;
75303;SDS011;64042;50.916;6.988;2023-02-13T01:13:48;4.47;;;4.07;;
75303;SDS011;64042;50.916;6.988;2023-02-13T01:16:13;3.70;;;3.40;;
75303;SDS011;64042;50.916;6.988;2023-02-13T01:18:41;5.18;;;4.05;;
75303;SDS011;64042;50.916;6.988;2023-02-13T01:21:08;5.03;;;4.53;;
75303;SDS011;64042;50.916;6.988;2023-02-13T01:23:42;3.88;;;3.20;;
75303;SDS011;64042;50.916;6.988;2023-02-13T01:26:08;4.28;;;3.80;;
75303;SDS011;64042;50.916;6.988;2023-02-13T01:28:37;4.00;;;3.28;;
75303;SDS011;64042;50.916;6.988;2023-02-13T01:31:03;4.90;;;4.15;;
75303;SDS011;64042;50.916;6.988;2023-02-13T01:33:28;4.47;;;4.05;;
75303;SDS011;64042;50.916;6.988;2023-02-13T01:35:54;3.88;;;3.17;;
75303;SDS011;64042;50.916;6.988;2023-02-13T01:38:19;3.92;;;3.17;;
75303;SDS011;64042;50.916;6.988;2023-02-13T01:40:48;3.65;;;3.33;;
75303;SDS011;64042;50.916;6.988;2023-02-13T01:43:16;5.30;;;3.72;;
75303;SDS011;64042;50.916;6.988;2023-02-13T01:45:41;3.90;;;3.33;;
75303;SDS011;64042;50.916;6.988;2023-02-13T01:48:15;3.78;;;3.35;;
75303;SDS011;64042;50.916;6.988;2023-02-13T01:50:44;3.85;;;3.03;;
75303;SDS011;64042;50.916;6.988;2023-02-13T01:53:15;4.57;;;3.45;;
75303;SDS011;64042;50.916;6.988;2023-02-13T01:55:45;4.55;;;3.97;;
75303;SDS011;64042;50.916;6.988;2023-02-13T01:58:14;3.97;;;3.42;;
75303;SDS011;64042;50.916;6.988;2023-02-13T02:00:42;4.28;;;3.88;;
75303;SDS011;64042;50.916;6.988;2023-02-13T02:03:14;4.15;;;3.75;;
75303;SDS011;64042;50.916;6.988;2023-02-13T02:05:43;5.13;;;3.35;;
75303;SDS011;64042;50.916;6.988;2023-02-13T02:08:10;4.22;;;3.47;;
75303;SDS011;64042;50.916;6.988;2023-02-13T02:10:36;4.18;;;3.08;;
75303;SDS011;64042;50.916;6.988;2023-02-13T02:13:04;4.82;;;3.92;;
75303;SDS011;64042;50.916;6.988;2023-02-13T02:15:32;3.75;;;2.92;;
75303;SDS011;64042;50.916;6.988;2023-02-13T02:17:57;4.93;;;3.50;;
75303;SDS011;64042;50.916;6.988;2023-02-13T02:37:44;3.50;;;3.17;;
75303;SDS011;64042;50.916;6.988;2023-02-13T02:48:32;4.25;;;3.00;;
75303;SDS011;64042;50.916;6.988;2023-02-13T02:56:56;3.33;;;2.55;;
75303;SDS011;64042;50.916;6.988;2023-02-13T02:59:23;3.58;;;3.22;;
75303;SDS011;64042;50.916;6.988;2023-02-13T03:02:07;4.15;;;3.20;;
75303;SDS011;64042;50.916;6.988;2023-02-13T03:04:52;3.78;;;2.75;;
75303;SDS011;64042;50.916;6.988;2023-02-13T03:07:37;3.28;;;2.92;;
75303;SDS011;64042;50.916;6.988;2023-02-13T03:10:06;4.65;;;3.97;;
75303;SDS011;64042;50.916;6.988;2023-02-13T03:13:06;3.45;;;3.10;;
75303;SDS011;64042;50.916;6.988;2023-02-13T03:15:45;4.28;;;3.80;;
75303;SDS011;64042;50.916;6.988;2023-02-13T03:18:32;3.60;;;2.95;;
75303;SDS011;64042;50.916;6.988;2023-02-13T03:24:25;3.45;;;3.08;;
75303;SDS011;64042;50.916;6.988;2023-02-13T03:26:56;3.65;;;3.35;;
75303;SDS011;64042;50.916;6.988;2023-02-13T03:29:52;2.85;;;2.65;;
75303;SDS011;64042;50.916;6.988;2023-02-13T03:32:41;3.75;;;3.35;;
75303;SDS011;64042;50.916;6.988;2023-02-13T03:35:20;4.57;;;2.70;;
75303;SDS011;64042;50.916;6.988;2023-02-13T03:38:16;3.35;;;3.03;;
75303;SDS011;64042;50.916;6.988;2023-02-13T03:40:47;3.25;;;2.75;;
75303;SDS011;64042;50.916;6.988;2023-02-13T03:43:45;3.97;;;2.75;;
75303;SDS011;64042;50.916;6.988;2023-02-13T03:46:18;3.50;;;3.20;;
75303;SDS011;64042;50.916;6.988;2023-02-13T03:48:44;3.78;;;3.28;;
75303;SDS011;64042;50.916;6.988;2023-02-13T03:53:59;2.80;;;2.30;;
75303;SDS011;64042;50.916;6.988;2023-02-13T03:56:26;3.33;;;2.65;;
75303;SDS011;64042;50.916;6.988;2023-02-13T03:59:16;2.65;;;2.42;;
75303;SDS011;64042;50.916;6.988;2023-02-13T04:01:45;3.67;;;3.25;;
75303;SDS011;64042;50.916;6.988;2023-02-13T04:07:11;3.78;;;3.45;;
75303;SDS011;64042;50.916;6.988;2023-02-13T04:09:53;2.67;;;2.47;;
75303;SDS011;64042;50.916;6.988;2023-02-13T04:12:20;3.10;;;2.70;;
75303;SDS011;64042;50.916;6.988;2023-02-13T04:17:38;3.63;;;3.00;;
75303;SDS011;64042;50.916;6.988;2023-02-13T04:20:07;3.38;;;3.08;;
75303;SDS011;64042;50.916;6.988;2023-02-13T04:22:33;3.05;;;2.75;;
75303;SDS011;64042;50.916;6.988;2023-02-13T04:24:58;3.42;;;2.58;;
75303;SDS011;64042;50.916;6.988;2023-02-13T04:27:24;2.83;;;2.40;;
75303;SDS011;64042;50.916;6.988;2023-02-13T04:29:52;2.65;;;2.28;;
75303;SDS011;64042;50.916;6.988;2023-02-13T04:32:17;3.33;;;3.10;;
75303;SDS011;64042;50.916;6.988;2023-02-13T04:34:42;3.43;;;2.80;;
75303;SDS011;64042;50.916;6.988;2023-02-13T04:37:08;3.03;;;2.73;;
75303;SDS011;64042;50.916;6.988;2023-02-13T04:39:33;2.63;;;2.40;;
75303;SDS011;64042;50.916;6.988;2023-02-13T04:41:59;3.30;;;2.85;;
75303;SDS011;64042;50.916;6.988;2023-02-13T04:44:24;4.50;;;3.10;;
75303;SDS011;64042;50.916;6.988;2023-02-13T04:46:49;3.27;;;2.73;;
75303;SDS011;64042;50.916;6.988;2023-02-13T04:49:14;3.23;;;2.90;;
75303;SDS011;64042;50.916;6.988;2023-02-13T04:51:40;2.73;;;2.43;;
75303;SDS011;64042;50.916;6.988;2023-02-13T04:54:05;2.57;;;2.37;;
75303;SDS011;64042;50.916;6.988;2023-02-13T04:56:30;3.20;;;2.90;;
75303;SDS011;64042;50.916;6.988;2023-02-13T04:58:56;3.25;;;2.95;;
75303;SDS011;64042;50.916;6.988;2023-02-13T05:01:21;2.50;;;2.30;;
75303;SDS011;64042;50.916;6.988;2023-02-13T05:03:46;3.13;;;2.40;;
75303;SDS011;64042;50.916;6.988;2023-02-13T05:06:12;3.05;;;2.72;;
75303;SDS011;64042;50.916;6.988;2023-02-13T05:08:37;3.60;;;3.30;;
75303;SDS011;64042;50.916;6.988;2023-02-13T05:11:02;3.50;;;3.20;;
75303;SDS011;64042;50.916;6.988;2023-02-13T05:13:28;3.47;;;2.78;;
75303;SDS011;64042;50.916;6.988;2023-02-13T05:15:53;3.07;;;2.77;;
75303;SDS011;64042;50.916;6.988;2023-02-13T05:18:18;2.78;;;2.28;;
75303;SDS011;64042;50.916;6.988;2023-02-13T05:20:44;3.17;;;2.75;;
75303;SDS011;64042;50.916;6.988;2023-02-13T05:23:29;3.20;;;2.28;;
75303;SDS011;64042;50.916;6.988;2023-02-13T05:25:55;2.83;;;2.53;;
75303;SDS011;64042;50.916;6.988;2023-02-13T05:28:20;2.37;;;2.17;;
75303;SDS011;64042;50.916;6.988;2023-02-13T05:31:04;2.72;;;2.53;;
75303;SDS011;64042;50.916;6.988;2023-02-13T05:33:29;2.92;;;2.47;;
75303;SDS011;64042;50.916;6.988;2023-02-13T05:35:54;2.73;;;2.47;;
75303;SDS011;64042;50.916;6.988;2023-02-13T05:38:19;2.87;;;2.33;;
75303;SDS011;64042;50.916;6.988;2023-02-13T05:40:45;2.80;;;2.55;;
75303;SDS011;64042;50.916;6.988;2023-02-13T05:43:10;3.08;;;2.78;;
75303;SDS011;64042;50.916;6.988;2023-02-13T05:45:35;2.95;;;2.72;;
75303;SDS011;64042;50.916;6.988;2023-02-13T05:48:01;2.93;;;2.63;;
75303;SDS011;64042;50.916;6.988;2023-02-13T05:50:26;3.33;;;2.67;;
75303;SDS011;64042;50.916;6.988;2023-02-13T05:52:51;4.87;;;2.53;;
75303;SDS011;64042;50.916;6.988;2023-02-13T05:55:17;3.50;;;3.20;;
75303;SDS011;64042;50.916;6.988;2023-02-13T05:57:42;3.10;;;2.80;;
75303;SDS011;64042;50.916;6.988;2023-02-13T06:00:07;2.77;;;2.57;;
75303;SDS011;64042;50.916;6.988;2023-02-13T06:02:33;2.85;;;2.63;;
75303;SDS011;64042;50.916;6.988;2023-02-13T06:04:58;3.50;;;3.20;;
75303;SDS011;64042;50.916;6.988;2023-02-13T06:07:23;3.20;;;2.90;;
75303;SDS011;64042;50.916;6.988;2023-02-13T06:09:49;2.80;;;2.00;;
75303;SDS011;64042;50.916;6.988;2023-02-13T06:12:14;3.00;;;2.40;;
75303;SDS011;64042;50.916;6.988;2023-02-13T06:14:39;3.07;;;2.87;;
75303;SDS011;64042;50.916;6.988;2023-02-13T06:17:05;3.10;;;2.80;;
75303;SDS011;64042;50.916;6.988;2023-02-13T06:19:30;2.70;;;2.43;;
75303;SDS011;64042;50.916;6.988;2023-02-13T06:21:55;2.50;;;2.30;;
75303;SDS011;64042;50.916;6.988;2023-02-13T06:24:20;2.85;;;2.47;;
75303;SDS011;64042;50.916;6.988;2023-02-13T06:26:46;3.03;;;2.73;;
75303;SDS011;64042;50.916;6.988;2023-02-13T06:29:11;3.53;;;2.70;;
75303;SDS011;64042;50.916;6.988;2023-02-13T06:31:36;2.92;;;2.42;;
75303;SDS011;64042;50.916;6.988;2023-02-13T06:34:02;2.92;;;2.58;;
75303;SDS011;64042;50.916;6.988;2023-02-13T06:36:27;3.00;;;2.80;;
75303;SDS011;64042;50.916;6.988;2023-02-13T06:38:52;2.63;;;2.43;;
75303;SDS011;64042;50.916;6.988;2023-02-13T06:41:18;2.33;;;2.07;;
75303;SDS011;64042;50.916;6.988;2023-02-13T06:43:43;2.70;;;2.50;;
75303;SDS011;64042;50.916;6.988;2023-02-13T06:46:08;3.17;;;2.87;;
75303;SDS011;64042;50.916;6.988;2023-02-13T06:48:34;2.63;;;2.33;;
75303;SDS011;64042;50.916;6.988;2023-02-13T06:50:59;2.72;;;2.10;;
75303;SDS011;64042;50.916;6.988;2023-02-13T06:53:28;2.72;;;2.53;;
75303;SDS011;64042;50.916;6.988;2023-02-13T06:55:54;2.28;;;2.08;;
75303;SDS011;64042;50.916;6.988;2023-02-13T06:58:20;2.45;;;2.03;;
75303;SDS011;64042;50.916;6.988;2023-02-13T07:00:45;3.13;;;2.83;;
75303;SDS011;64042;50.916;6.988;2023-02-13T07:03:11;2.42;;;2.22;;
75303;SDS011;64042;50.916;6.988;2023-02-13T07:05:40;2.05;;;1.85;;
75303;SDS011;64042;50.916;6.988;2023-02-13T07:08:07;2.30;;;2.10;;
75303;SDS011;64042;50.916;6.988;2023-02-13T07:10:33;2.38;;;1.90;;
75303;SDS011;64042;50.916;6.988;2023-02-13T07:13:01;2.55;;;2.30;;
75303;SDS011;64042;50.916;6.988;2023-02-13T07:15:26;2.70;;;1.80;;
75303;SDS011;64042;50.916;6.988;2023-02-13T07:17:55;2.60;;;2.33;;
75303;SDS011;64042;50.916;6.988;2023-02-13T07:20:21;2.60;;;2.00;;
75303;SDS011;64042;50.916;6.988;2023-02-13T07:22:46;2.83;;;2.30;;
75303;SDS011;64042;50.916;6.988;2023-02-13T07:25:12;2.55;;;2.35;;
75303;SDS011;64042;50.916;6.988;2023-02-13T07:27:37;3.60;;;3.30;;
75303;SDS011;64042;50.916;6.988;2023-02-13T07:30:02;2.30;;;2.00;;
75303;SDS011;64042;50.916;6.988;2023-02-13T07:32:28;1.98;;;1.77;;
75303;SDS011;64042;50.916;6.988;2023-02-13T07:34:53;2.58;;;2.17;;
75303;SDS011;64042;50.916;6.988;2023-02-13T07:37:18;2.73;;;1.87;;
75303;SDS011;64042;50.916;6.988;2023-02-13T07:39:45;2.65;;;2.45;;
75303;SDS011;64042;50.916;6.988;2023-02-13T07:42:10;2.78;;;2.40;;
75303;SDS011;64042;50.916;6.988;2023-02-13T07:44:35;2.13;;;1.77;;
75303;SDS011;64042;50.916;6.988;2023-02-13T07:47:00;2.50;;;2.30;;
75303;SDS011;64042;50.916;6.988;2023-02-13T07:49:26;2.38;;;1.98;;
75303;SDS011;64042;50.916;6.988;2023-02-13T07:51:51;2.40;;;2.20;;
75303;SDS011;64042;50.916;6.988;2023-02-13T07:54:16;3.13;;;2.93;;
75303;SDS011;64042;50.916;6.988;2023-02-13T07:56:41;2.80;;;2.43;;
75303;SDS011;64042;50.916;6.988;2023-02-13T07:59:07;2.03;;;1.83;;
75303;SDS011;64042;50.916;6.988;2023-02-13T08:01:32;2.43;;;2.13;;
75303;SDS011;64042;50.916;6.988;2023-02-13T08:03:57;2.43;;;2.20;;
75303;SDS011;64042;50.916;6.988;2023-02-13T08:06:23;2.10;;;1.90;;
75303;SDS011;64042;50.916;6.988;2023-02-13T08:08:48;2.38;;;2.17;;
75303;SDS011;64042;50.916;6.988;2023-02-13T08:11:34;2.25;;;1.98;;
75303;SDS011;64042;50.916;6.988;2023-02-13T08:14:17;2.38;;;2.08;;
75303;SDS011;64042;50.916;6.988;2023-02-13T08:16:43;2.03;;;1.83;;
75303;SDS011;64042;50.916;6.988;2023-02-13T08:19:08;2.23;;;2.03;;
75303;SDS011;64042;50.916;6.988;2023-02-13T08:21:33;2.33;;;2.00;;
75303;SDS011;64042;50.916;6.988;2023-02-13T08:24:00;1.98;;;1.77;;
75303;SDS011;64042;50.916;6.988;2023-02-13T08:26:26;1.93;;;1.67;;
75303;SDS011;64042;50.916;6.988;2023-02-13T08:28:51;2.90;;;2.43;;
75303;SDS011;64042;50.916;6.988;2023-02-13T08:31:16;2.22;;;2.03;;
75303;SDS011;64042;50.916;6.988;2023-02-13T08:33:41;2.63;;;2.03;;
75303;SDS011;64042;50.916;6.988;2023-02-13T08:36:07;2.53;;;2.27;;
75303;SDS011;64042;50.916;6.988;2023-02-13T08:38:32;3.03;;;2.72;;
75303;SDS011;64042;50.916;6.988;2023-02-13T08:40:58;2.95;;;2.65;;
75303;SDS011;64042;50.916;6.988;2023-02-13T08:43:23;2.50;;;2.30;;
75303;SDS011;64042;50.916;6.988;2023-02-13T08:45:48;2.42;;;2.17;;
75303;SDS011;64042;50.916;6.988;2023-02-13T08:48:14;2.53;;;2.33;;
75303;SDS011;64042;50.916;6.988;2023-02-13T08:50:39;2.60;;;1.92;;
75303;SDS011;64042;50.916;6.988;2023-02-13T08:53:04;2.40;;;2.20;;
75303;SDS011;64042;50.916;6.988;2023-02-13T08:55:30;2.58;;;2.38;;
75303;SDS011;64042;50.916;6.988;2023-02-13T08:57:58;2.08;;;1.88;;
75303;SDS011;64042;50.916;6.988;2023-02-13T09:00:24;2.20;;;1.83;;
75303;SDS011;64042;50.916;6.988;2023-02-13T09:02:50;1.97;;;1.87;;
75303;SDS011;64042;50.916;6.988;2023-02-13T09:05:15;2.90;;;1.87;;
75303;SDS011;64042;50.916;6.988;2023-02-13T09:07:40;3.35;;;2.22;;
75303;SDS011;64042;50.916;6.988;2023-02-13T09:10:06;3.10;;;2.43;;
75303;SDS011;64042;50.916;6.988;2023-02-13T09:12:31;2.80;;;2.60;;
75303;SDS011;64042;50.916;6.988;2023-02-13T09:14:56;2.17;;;1.92;;
75303;SDS011;64042;50.916;6.988;2023-02-13T09:17:22;2.80;;;2.40;;
75303;SDS011;64042;50.916;6.988;2023-02-13T09:19:47;4.07;;;3.50;;
75303;SDS011;64042;50.916;6.988;2023-02-13T09:22:12;3.27;;;2.00;;
75303;SDS011;64042;50.916;6.988;2023-02-13T09:24:40;3.08;;;2.88;;
75303;SDS011;64042;50.916;6.988;2023-02-13T09:27:06;3.00;;;2.15;;
75303;SDS011;64042;50.916;6.988;2023-02-13T09:29:32;2.22;;;1.85;;
75303;SDS011;64042;50.916;6.988;2023-02-13T09:31:58;5.20;;;2.40;;
75303;SDS011;64042;50.916;6.988;2023-02-13T09:34:23;2.97;;;2.20;;
75303;SDS011;64042;50.916;6.988;2023-02-13T09:36:51;2.53;;;1.98;;
75303;SDS011;64042;50.916;6.988;2023-02-13T09:39:17;3.28;;;2.45;;
75303;SDS011;64042;50.916;6.988;2023-02-13T09:41:43;2.75;;;2.05;;
75303;SDS011;64042;50.916;6.988;2023-02-13T09:44:11;4.13;;;2.38;;
75303;SDS011;64042;50.916;6.988;2023-02-13T09:46:57;3.63;;;2.08;;
75303;SDS011;64042;50.916;6.988;2023-02-13T09:49:24;2.35;;;1.73;;
75303;SDS011;64042;50.916;6.988;2023-02-13T09:51:53;3.03;;;2.10;;
75303;SDS011;64042;50.916;6.988;2023-02-13T10:11:38;2.95;;;2.53;;
75303;SDS011;64042;50.916;6.988;2023-02-13T10:14:15;2.22;;;1.52;;
75303;SDS011;64042;50.916;6.988;2023-02-13T10:16:58;3.95;;;1.85;;
75303;SDS011;64042;50.916;6.988;2023-02-13T10:22:22;3.03;;;2.17;;
75303;SDS011;64042;50.916;6.988;2023-02-13T10:25:05;3.17;;;2.25;;
75303;SDS011;64042;50.916;6.988;2023-02-13T10:27:41;2.75;;;1.90;;
75303;SDS011;64042;50.916;6.988;2023-02-13T10:30:25;4.88;;;2.33;;
75303;SDS011;64042;50.916;6.988;2023-02-13T10:35:47;3.22;;;2.33;;
75303;SDS011;64042;50.916;6.988;2023-02-13T10:38:16;2.60;;;1.85;;
75303;SDS011;64042;50.916;6.988;2023-02-13T10:40:47;3.83;;;2.63;;
75303;SDS011;64042;50.916;6.988;2023-02-13T10:49:45;3.20;;;1.70;;
75303;SDS011;64042;50.916;6.988;2023-02-13T10:52:26;3.80;;;2.22;;
75303;SDS011;64042;50.916;6.988;2023-02-13T11:00:41;2.08;;;1.58;;
75303;SDS011;64042;50.916;6.988;2023-02-13T11:03:19;2.95;;;2.28;;
75303;SDS011;64042;50.916;6.988;2023-02-13T11:05:46;2.83;;;1.63;;
75303;SDS011;64042;50.916;6.988;2023-02-13T11:08:25;2.58;;;1.83;;
75303;SDS011;64042;50.916;6.988;2023-02-13T11:10:54;2.67;;;2.45;;
75303;SDS011;64042;50.916;6.988;2023-02-13T11:13:21;2.43;;;1.97;;
75303;SDS011;64042;50.916;6.988;2023-02-13T11:18:30;2.58;;;1.90;;
75303;SDS011;64042;50.916;6.988;2023-02-13T11:21:15;2.55;;;2.22;;
75303;SDS011;64042;50.916;6.988;2023-02-13T11:23:49;2.95;;;1.95;;
75303;SDS011;64042;50.916;6.988;2023-02-13T11:26:30;2.25;;;2.05;;
75303;SDS011;64042;50.916;6.988;2023-02-13T11:29:00;1.75;;;1.65;;
75303;SDS011;64042;50.916;6.988;2023-02-13T11:31:35;8.05;;;2.33;;
75303;SDS011;64042;50.916;6.988;2023-02-13T11:36:45;2.47;;;2.28;;
75303;SDS011;64042;50.916;6.988;2023-02-13T11:39:19;2.47;;;2.00;;
75303;SDS011;64042;50.916;6.988;2023-02-13T11:41:46;2.00;;;1.58;;
75303;SDS011;64042;50.916;6.988;2023-02-13T11:46:51;2.38;;;2.17;;
75303;SDS011;64042;50.916;6.988;2023-02-13T11:49:19;2.47;;;2.03;;
75303;SDS011;64042;50.916;6.988;2023-02-13T11:51:49;2.03;;;1.83;;
75303;SDS011;64042;50.916;6.988;2023-02-13T11:57:14;2.65;;;2.45;;
75303;SDS011;64042;50.916;6.988;2023-02-13T11:59:46;2.22;;;2.03;;
75303;SDS011;64042;50.916;6.988;2023-02-13T12:02:17;2.20;;;1.88;;
75303;SDS011;64042;50.916;6.988;2023-02-13T12:04:44;1.52;;;1.38;;
75303;SDS011;64042;50.916;6.988;2023-02-13T12:07:15;2.30;;;1.92;;
75303;SDS011;64042;50.916;6.988;2023-02-13T12:12:39;2.22;;;2.03;;
75303;SDS011;64042;50.916;6.988;2023-02-13T12:15:27;2.00;;;1.55;;
75303;SDS011;64042;50.916;6.988;2023-02-13T12:23:28;2.38;;;2.03;;
75303;SDS011;64042;50.916;6.988;2023-02-13T12:26:44;4.38;;;2.40;;
75303;SDS011;64042;50.916;6.988;2023-02-13T12:57:09;4.50;;;2.50;;
75303;SDS011;64042;50.916;6.988;2023-02-13T12:59:52;3.13;;;1.88;;
75303;SDS011;64042;50.916;6.988;2023-02-13T13:05:07;3.55;;;2.05;;
75303;SDS011;64042;50.916;6.988;2023-02-13T13:07:51;4.57;;;2.28;;
75303;SDS011;64042;50.916;6.988;2023-02-13T13:10:41;3.22;;;2.05;;
75303;SDS011;64042;50.916;6.988;2023-02-13T13:13:31;2.95;;;2.15;;
75303;SDS011;64042;50.916;6.988;2023-02-13T13:16:22;2.92;;;1.70;;
75303;SDS011;64042;50.916;6.988;2023-02-13T13:27:08;2.92;;;1.85;;
75303;SDS011;64042;50.916;6.988;2023-02-13T13:29:44;3.22;;;2.92;;
75303;SDS011;64042;50.916;6.988;2023-02-13T13:32:31;2.15;;;1.95;;
75303;SDS011;64042;50.916;6.988;2023-02-13T13:34:57;2.03;;;1.80;;
75303;SDS011;64042;50.916;6.988;2023-02-13T13:40:08;2.60;;;1.75;;
75303;SDS011;64042;50.916;6.988;2023-02-13T13:42:47;2.88;;;1.65;;
75303;SDS011;64042;50.916;6.988;2023-02-13T13:50:55;2.35;;;1.95;;
75303;SDS011;64042;50.916;6.988;2023-02-13T13:53:21;2.45;;;1.80;;
75303;SDS011;64042;50.916;6.988;2023-02-13T14:03:54;3.72;;;1.67;;
75303;SDS011;64042;50.916;6.988;2023-02-13T14:11:51;2.42;;;1.80;;
75303;SDS011;64042;50.916;6.988;2023-02-13T14:16:51;1.95;;;1.75;;
75303;SDS011;64042;50.916;6.988;2023-02-13T14:19:28;1.80;;;1.63;;
75303;SDS011;64042;50.916;6.988;2023-02-13T14:24:47;2.17;;;1.98;;
75303;SDS011;64042;50.916;6.988;2023-02-13T14:27:51;2.15;;;1.95;;
75303;SDS011;64042;50.916;6.988;2023-02-13T14:30:06;2.95;;;2.20;;
75303;SDS011;64042;50.916;6.988;2023-02-13T14:32:50;2.22;;;2.05;;
75303;SDS011;64042;50.916;6.988;2023-02-13T14:35:17;2.97;;;2.42;;
75303;SDS011;64042;50.916;6.988;2023-02-13T14:37:47;3.42;;;3.13;;
75303;SDS011;64042;50.916;6.988;2023-02-13T14:42:42;2.35;;;1.85;;
75303;SDS011;64042;50.916;6.988;2023-02-13T14:45:14;2.92;;;2.72;;
75303;SDS011;64042;50.916;6.988;2023-02-13T14:47:44;2.72;;;1.95;;
75303;SDS011;64042;50.916;6.988;2023-02-13T14:50:17;2.65;;;1.75;;
75303;SDS011;64042;50.916;6.988;2023-02-13T14:52:45;2.05;;;1.85;;
75303;SDS011;64042;50.916;6.988;2023-02-13T14:57:39;2.00;;;1.80;;
75303;SDS011;64042;50.916;6.988;2023-02-13T15:00:13;3.38;;;1.80;;
75303;SDS011;64042;50.916;6.988;2023-02-13T15:02:48;2.65;;;1.73;;
75303;SDS011;64042;50.916;6.988;2023-02-13T15:05:18;2.63;;;1.77;;
75303;SDS011;64042;50.916;6.988;2023-02-13T15:08:18;3.13;;;2.83;;
75303;SDS011;64042;50.916;6.988;2023-02-13T15:10:47;3.17;;;1.75;;
75303;SDS011;64042;50.916;6.988;2023-02-13T15:13:18;2.65;;;1.90;;
75303;SDS011;64042;50.916;6.988;2023-02-13T15:15:50;3.03;;;1.50;;
75303;SDS011;64042;50.916;6.988;2023-02-13T15:18:18;1.75;;;1.45;;
75303;SDS011;64042;50.916;6.988;2023-02-13T15:20:45;2.70;;;2.22;;
75303;SDS011;64042;50.916;6.988;2023-02-13T15:23:21;3.65;;;2.10;;
75303;SDS011;64042;50.916;6.988;2023-02-13T15:25:47;2.42;;;1.85;;
75303;SDS011;64042;50.916;6.988;2023-02-13T15:28:20;2.20;;;1.77;;
75303;SDS011;64042;50.916;6.988;2023-02-13T15:31:01;2.35;;;1.80;;
75303;SDS011;64042;50.916;6.988;2023-02-13T15:36:17;1.73;;;1.30;;
75303;SDS011;64042;50.916;6.988;2023-02-13T15:38:43;2.40;;;1.73;;
75303;SDS011;64042;50.916;6.988;2023-02-13T15:41:10;4.13;;;1.55;;
75303;SDS011;64042;50.916;6.988;2023-02-13T15:43:44;1.90;;;1.63;;
75303;SDS011;64042;50.916;6.988;2023-02-13T15:46:17;2.95;;;1.67;;
75303;SDS011;64042;50.916;6.988;2023-02-13T15:48:44;2.22;;;1.77;;
75303;SDS011;64042;50.916;6.988;2023-02-13T15:51:16;2.95;;;1.73;;
75303;SDS011;64042;50.916;6.988;2023-02-13T15:53:52;3.33;;;1.65;;
75303;SDS011;64042;50.916;6.988;2023-02-13T15:56:18;3.20;;;1.92;;
75303;SDS011;64042;50.916;6.988;2023-02-13T15:58:44;2.05;;;1.38;;
75303;SDS011;64042;50.916;6.988;2023-02-13T16:01:09;2.95;;;2.25;;
75303;SDS011;64042;50.916;6.988;2023-02-13T16:03:35;3.97;;;1.67;;
75303;SDS011;64042;50.916;6.988;2023-02-13T16:06:01;3.63;;;1.73;;
75303;SDS011;64042;50.916;6.988;2023-02-13T16:08:35;1.92;;;1.20;;
75303;SDS011;64042;50.916;6.988;2023-02-13T16:11:17;2.05;;;1.40;;
75303;SDS011;64042;50.916;6.988;2023-02-13T16:16:40;3.03;;;1.50;;
75303;SDS011;64042;50.916;6.988;2023-02-13T16:27:48;2.47;;;1.75;;
75303;SDS011;64042;50.916;6.988;2023-02-13T16:30:21;3.45;;;1.55;;
75303;SDS011;64042;50.916;6.988;2023-02-13T16:32:48;4.93;;;1.58;;
75303;SDS011;64042;50.916;6.988;2023-02-13T16:35:15;1.30;;;1.13;;
75303;SDS011;64042;50.916;6.988;2023-02-13T16:37:47;1.48;;;1.38;;
75303;SDS011;64042;50.916;6.988;2023-02-13T16:48:39;1.88;;;1.58;;
75303;SDS011;64042;50.916;6.988;2023-02-13T16:51:05;1.75;;;1.13;;
75303;SDS011;64042;50.916;6.988;2023-02-13T16:53:30;1.73;;;1.38;;
75303;SDS011;64042;50.916;6.988;2023-02-13T16:55:56;2.60;;;1.95;;
75303;SDS011;64042;50.916;6.988;2023-02-13T16:58:24;2.30;;;1.55;;
75303;SDS011;64042;50.916;6.988;2023-02-13T17:00:49;3.13;;;1.77;;
75303;SDS011;64042;50.916;6.988;2023-02-13T17:03:15;1.88;;;1.50;;
75303;SDS011;64042;50.916;6.988;2023-02-13T17:05:40;2.73;;;1.67;;
75303;SDS011;64042;50.916;6.988;2023-02-13T17:08:06;2.07;;;1.87;;
75303;SDS011;64042;50.916;6.988;2023-02-13T17:10:32;3.65;;;1.92;;
75303;SDS011;64042;50.916;6.988;2023-02-13T17:13:01;3.03;;;1.88;;
75303;SDS011;64042;50.916;6.988;2023-02-13T17:15:31;3.80;;;2.42;;
75303;SDS011;64042;50.916;6.988;2023-02-13T17:17:56;3.22;;;1.88;;
75303;SDS011;64042;50.916;6.988;2023-02-13T17:20:24;3.78;;;1.65;;
75303;SDS011;64042;50.916;6.988;2023-02-13T17:22:55;3.53;;;2.00;;
75303;SDS011;64042;50.916;6.988;2023-02-13T17:25:23;4.38;;;1.60;;
75303;SDS011;64042;50.916;6.988;2023-02-13T17:27:49;3.08;;;1.75;;
75303;SDS011;64042;50.916;6.988;2023-02-13T17:30:19;3.75;;;1.77;;
75303;SDS011;64042;50.916;6.988;2023-02-13T17:32:46;3.95;;;1.73;;
75303;SDS011;64042;50.916;6.988;2023-02-13T17:35:12;3.63;;;2.15;;
75303;SDS011;64042;50.916;6.988;2023-02-13T17:37:39;2.90;;;1.52;;
75303;SDS011;64042;50.916;6.988;2023-02-13T17:40:05;2.83;;;2.22;;
75303;SDS011;64042;50.916;6.988;2023-02-13T17:42:31;3.55;;;1.85;;
75303;SDS011;64042;50.916;6.988;2023-02-13T17:44:57;4.10;;;2.20;;
75303;SDS011;64042;50.916;6.988;2023-02-13T17:47:23;2.85;;;2.25;;
75303;SDS011;64042;50.916;6.988;2023-02-13T17:49:48;3.03;;;1.70;;
75303;SDS011;64042;50.916;6.988;2023-02-13T17:52:18;2.75;;;1.73;;
75303;SDS011;64042;50.916;6.988;2023-02-13T17:54:45;3.97;;;1.88;;
75303;SDS011;64042;50.916;6.988;2023-02-13T17:57:11;2.70;;;1.65;;
75303;SDS011;64042;50.916;6.988;2023-02-13T17:59:38;2.88;;;1.63;;
75303;SDS011;64042;50.916;6.988;2023-02-13T18:02:05;3.47;;;1.75;;
75303;SDS011;64042;50.916;6.988;2023-02-13T18:04:34;3.30;;;1.80;;
75303;SDS011;64042;50.916;6.988;2023-02-13T18:06:59;2.70;;;1.77;;
75303;SDS011;64042;50.916;6.988;2023-02-13T18:09:25;3.33;;;1.80;;
75303;SDS011;64042;50.916;6.988;2023-02-13T18:11:50;5.10;;;1.83;;